sensor_id;sensor_type;location;lat;lon;timestamp;pressure;altitude;pressure_sealevel;temperature;humidity
9717;BME280;4897;43.570;27.832;2023-05-24T00:01:41;98775.22;;;13.88;100.00
9717;BME280;4897;43.570;27.832;2023-05-24T00:04:08;98790.69;;;13.94;100.00
9717;BME280;4897;43.570;27.832;2023-05-24T00:06:35;98792.66;;;14.09;100.00
9717;BME280;4897;43.570;27.832;2023-05-24T00:09:02;98786.59;;;14.07;100.00
9717;BME280;4897;43.570;27.832;2023-05-24T00:11:30;98734.59;;;13.57;100.00
9717;BME280;4897;43.570;27.832;2023-05-24T00:13:57;98723.63;;;13.76;100.00
9717;BME280;4897;43.570;27.832;2023-05-24T00:16:24;98780.38;;;14.07;100.00
9717;BME280;4897;43.570;27.832;2023-05-24T00:18:51;98773.31;;;14.06;100.00
9717;BME280;4897;43.570;27.832;2023-05-24T00:21:19;98787.13;;;14.19;100.00
9717;BME280;4897;43.570;27.832;2023-05-24T00:23:46;98782.22;;;14.14;100.00
9717;BME280;4897;43.570;27.832;2023-05-24T00:26:13;98785.13;;;14.21;100.00
9717;BME280;4897;43.570;27.832;2023-05-24T00:28:41;98777.22;;;14.19;100.00
9717;BME280;4897;43.570;27.832;2023-05-24T00:31:08;98786.13;;;14.20;100.00
9717;BME280;4897;43.570;27.832;2023-05-24T00:33:35;98785.59;;;14.16;100.00
9717;BME280;4897;43.570;27.832;2023-05-24T00:36:01;98790.00;;;14.17;100.00
9717;BME280;4897;43.570;27.832;2023-05-24T00:38:28;98698.13;;;13.54;100.00
9717;BME280;4897;43.570;27.832;2023-05-24T00:40:55;98779.41;;;14.16;100.00
9717;BME280;4897;43.570;27.832;2023-05-24T00:43:24;98784.13;;;14.22;100.00
9717;BME280;4897;43.570;27.832;2023-05-24T00:46:13;98790.47;;;14.13;100.00
9717;BME280;4897;43.570;27.832;2023-05-24T00:48:41;98780.19;;;14.08;100.00
9717;BME280;4897;43.570;27.832;2023-05-24T00:51:08;98796.50;;;14.07;100.00
9717;BME280;4897;43.570;27.832;2023-05-24T00:53:36;98791.75;;;14.01;100.00
9717;BME280;4897;43.570;27.832;2023-05-24T00:56:04;98768.81;;;13.81;100.00
9717;BME280;4897;43.570;27.832;2023-05-24T00:58:32;98787.97;;;13.86;100.00
9717;BME280;4897;43.570;27.832;2023-05-24T01:01:01;98798.91;;;13.84;100.00
9717;BME280;4897;43.570;27.832;2023-05-24T01:03:29;98791.13;;;13.81;100.00
9717;BME280;4897;43.570;27.832;2023-05-24T01:05:57;98790.44;;;13.79;100.00
9717;BME280;4897;43.570;27.832;2023-05-24T01:08:40;98789.56;;;13.71;100.00
9717;BME280;4897;43.570;27.832;2023-05-24T01:11:14;98778.81;;;13.71;100.00
9717;BME280;4897;43.570;27.832;2023-05-24T01:13:47;98776.09;;;13.62;100.00
9717;BME280;4897;43.570;27.832;2023-05-24T01:16:23;98780.69;;;13.70;100.00
9717;BME280;4897;43.570;27.832;2023-05-24T01:18:53;98776.13;;;13.71;100.00
9717;BME280;4897;43.570;27.832;2023-05-24T01:21:36;98762.34;;;13.66;100.00
9717;BME280;4897;43.570;27.832;2023-05-24T01:24:13;98759.97;;;13.62;100.00
9717;BME280;4897;43.570;27.832;2023-05-24T01:27:03;98767.28;;;13.78;100.00
9717;BME280;4897;43.570;27.832;2023-05-24T01:29:33;98773.13;;;13.74;100.00
9717;BME280;4897;43.570;27.832;2023-05-24T01:32:00;98765.28;;;13.80;100.00
9717;BME280;4897;43.570;27.832;2023-05-24T01:34:27;98761.75;;;13.80;100.00
9717;BME280;4897;43.570;27.832;2023-05-24T01:36:54;98666.97;;;13.10;100.00
9717;BME280;4897;43.570;27.832;2023-05-24T01:39:23;98773.78;;;13.68;100.00
9717;BME280;4897;43.570;27.832;2023-05-24T01:42:04;98755.50;;;13.45;100.00
9717;BME280;4897;43.570;27.832;2023-05-24T01:44:36;98761.03;;;13.44;100.00
9717;BME280;4897;43.570;27.832;2023-05-24T01:47:13;98762.59;;;13.29;100.00
9717;BME280;4897;43.570;27.832;2023-05-24T01:49:49;98749.22;;;13.11;100.00
9717;BME280;4897;43.570;27.832;2023-05-24T01:52:18;98579.31;;;12.07;100.00
9717;BME280;4897;43.570;27.832;2023-05-24T01:54:51;98737.53;;;12.85;100.00
9717;BME280;4897;43.570;27.832;2023-05-24T01:57:21;98767.84;;;13.13;100.00
9717;BME280;4897;43.570;27.832;2023-05-24T01:59:49;98742.03;;;13.02;100.00
9717;BME280;4897;43.570;27.832;2023-05-24T02:02:16;98654.03;;;12.45;100.00
9717;BME280;4897;43.570;27.832;2023-05-24T02:04:46;98759.97;;;13.02;100.00
9717;BME280;4897;43.570;27.832;2023-05-24T02:07:13;98672.56;;;12.56;100.00
9717;BME280;4897;43.570;27.832;2023-05-24T02:09:41;98575.16;;;11.94;100.00
9717;BME280;4897;43.570;27.832;2023-05-24T02:12:10;98774.00;;;13.05;100.00
9717;BME280;4897;43.570;27.832;2023-05-24T02:14:38;98757.03;;;13.05;100.00
9717;BME280;4897;43.570;27.832;2023-05-24T02:17:07;98675.63;;;12.61;100.00
9717;BME280;4897;43.570;27.832;2023-05-24T02:19:33;98779.72;;;13.10;100.00
9717;BME280;4897;43.570;27.832;2023-05-24T02:22:01;98744.31;;;12.89;100.00
9717;BME280;4897;43.570;27.832;2023-05-24T02:24:28;98772.97;;;13.06;100.00
9717;BME280;4897;43.570;27.832;2023-05-24T02:26:55;98776.69;;;13.05;100.00
9717;BME280;4897;43.570;27.832;2023-05-24T02:29:21;98712.56;;;12.67;100.00
9717;BME280;4897;43.570;27.832;2023-05-24T02:31:50;98786.97;;;13.10;100.00
9717;BME280;4897;43.570;27.832;2023-05-24T02:34:20;98792.63;;;13.24;100.00
9717;BME280;4897;43.570;27.832;2023-05-24T02:36:48;98785.09;;;13.28;100.00
9717;BME280;4897;43.570;27.832;2023-05-24T02:39:15;98791.41;;;13.44;100.00
9717;BME280;4897;43.570;27.832;2023-05-24T02:41:42;98811.91;;;13.45;100.00
9717;BME280;4897;43.570;27.832;2023-05-24T02:44:09;98781.66;;;13.43;100.00
9717;BME280;4897;43.570;27.832;2023-05-24T02:46:36;98795.44;;;13.66;100.00
9717;BME280;4897;43.570;27.832;2023-05-24T02:49:04;98764.09;;;13.49;100.00
9717;BME280;4897;43.570;27.832;2023-05-24T02:51:31;98805.38;;;13.74;100.00
9717;BME280;4897;43.570;27.832;2023-05-24T02:53:58;98796.34;;;13.75;100.00
9717;BME280;4897;43.570;27.832;2023-05-24T02:56:25;98797.69;;;13.79;100.00
9717;BME280;4897;43.570;27.832;2023-05-24T02:58:52;98796.00;;;13.78;100.00
9717;BME280;4897;43.570;27.832;2023-05-24T03:01:20;98795.06;;;13.87;100.00
9717;BME280;4897;43.570;27.832;2023-05-24T03:03:47;98788.41;;;13.99;100.00
9717;BME280;4897;43.570;27.832;2023-05-24T03:06:15;98792.84;;;14.16;100.00
9717;BME280;4897;43.570;27.832;2023-05-24T03:08:45;98793.84;;;14.15;100.00
9717;BME280;4897;43.570;27.832;2023-05-24T03:11:13;98758.66;;;14.00;100.00
9717;BME280;4897;43.570;27.832;2023-05-24T03:13:40;98790.94;;;14.34;100.00
9717;BME280;4897;43.570;27.832;2023-05-24T03:16:09;98792.47;;;14.36;100.00
9717;BME280;4897;43.570;27.832;2023-05-24T03:18:36;98802.09;;;14.55;100.00
9717;BME280;4897;43.570;27.832;2023-05-24T03:21:03;98783.63;;;14.60;100.00
9717;BME280;4897;43.570;27.832;2023-05-24T03:23:33;98786.47;;;14.67;100.00
9717;BME280;4897;43.570;27.832;2023-05-24T03:26:00;98781.63;;;14.78;100.00
9717;BME280;4897;43.570;27.832;2023-05-24T03:28:27;98809.59;;;14.93;100.00
9717;BME280;4897;43.570;27.832;2023-05-24T03:30:54;98787.03;;;14.94;100.00
9717;BME280;4897;43.570;27.832;2023-05-24T03:33:21;98770.56;;;14.89;100.00
9717;BME280;4897;43.570;27.832;2023-05-24T03:35:48;98785.19;;;15.03;100.00
9717;BME280;4897;43.570;27.832;2023-05-24T03:38:17;98762.47;;;14.89;100.00
9717;BME280;4897;43.570;27.832;2023-05-24T03:40:45;98791.44;;;15.03;100.00
9717;BME280;4897;43.570;27.832;2023-05-24T03:43:12;98781.34;;;15.13;100.00
9717;BME280;4897;43.570;27.832;2023-05-24T03:45:39;98784.03;;;15.21;100.00
9717;BME280;4897;43.570;27.832;2023-05-24T03:48:06;98797.00;;;15.34;100.00
9717;BME280;4897;43.570;27.832;2023-05-24T03:50:33;98798.34;;;15.54;100.00
9717;BME280;4897;43.570;27.832;2023-05-24T03:53:00;98805.91;;;15.75;100.00
9717;BME280;4897;43.570;27.832;2023-05-24T03:55:27;98781.97;;;15.80;100.00
9717;BME280;4897;43.570;27.832;2023-05-24T03:57:55;98802.94;;;16.09;100.00
9717;BME280;4897;43.570;27.832;2023-05-24T04:00:22;98773.50;;;15.99;100.00
9717;BME280;4897;43.570;27.832;2023-05-24T04:02:49;98783.81;;;16.34;100.00
9717;BME280;4897;43.570;27.832;2023-05-24T04:05:16;98793.63;;;16.66;100.00
9717;BME280;4897;43.570;27.832;2023-05-24T04:07:43;98793.28;;;16.69;100.00
9717;BME280;4897;43.570;27.832;2023-05-24T04:10:10;98796.75;;;16.77;100.00
9717;BME280;4897;43.570;27.832;2023-05-24T04:12:39;98799.66;;;16.99;100.00
9717;BME280;4897;43.570;27.832;2023-05-24T04:15:09;98796.44;;;17.03;100.00
9717;BME280;4897;43.570;27.832;2023-05-24T04:17:39;98624.13;;;16.00;100.00
9717;BME280;4897;43.570;27.832;2023-05-24T04:20:07;98791.16;;;17.10;100.00
9717;BME280;4897;43.570;27.832;2023-05-24T04:22:34;98779.50;;;17.09;100.00
9717;BME280;4897;43.570;27.832;2023-05-24T04:25:01;98802.63;;;17.12;100.00
9717;BME280;4897;43.570;27.832;2023-05-24T04:27:28;98795.38;;;17.12;100.00
9717;BME280;4897;43.570;27.832;2023-05-24T04:29:56;98787.13;;;17.06;100.00
9717;BME280;4897;43.570;27.832;2023-05-24T04:32:24;98789.19;;;17.04;100.00
9717;BME280;4897;43.570;27.832;2023-05-24T04:34:51;98795.53;;;17.11;100.00
9717;BME280;4897;43.570;27.832;2023-05-24T04:37:18;98805.44;;;17.18;100.00
9717;BME280;4897;43.570;27.832;2023-05-24T04:39:45;98810.59;;;17.28;100.00
9717;BME280;4897;43.570;27.832;2023-05-24T04:42:12;98773.97;;;17.03;100.00
9717;BME280;4897;43.570;27.832;2023-05-24T04:44:39;98810.06;;;17.32;100.00
9717;BME280;4897;43.570;27.832;2023-05-24T04:47:07;98805.44;;;17.41;100.00
9717;BME280;4897;43.570;27.832;2023-05-24T04:49:36;98801.81;;;17.48;100.00
9717;BME280;4897;43.570;27.832;2023-05-24T04:52:04;98809.09;;;17.71;100.00
9717;BME280;4897;43.570;27.832;2023-05-24T04:54:32;98798.94;;;17.87;100.00
9717;BME280;4897;43.570;27.832;2023-05-24T04:56:59;98796.81;;;17.97;100.00
9717;BME280;4897;43.570;27.832;2023-05-24T04:59:26;98799.53;;;18.12;100.00
9717;BME280;4897;43.570;27.832;2023-05-24T05:01:52;98793.34;;;18.32;100.00
9717;BME280;4897;43.570;27.832;2023-05-24T05:04:19;98809.31;;;18.57;100.00
9717;BME280;4897;43.570;27.832;2023-05-24T05:06:48;98800.50;;;18.69;100.00
9717;BME280;4897;43.570;27.832;2023-05-24T05:09:18;98801.28;;;19.20;100.00
9717;BME280;4897;43.570;27.832;2023-05-24T05:11:45;98802.91;;;19.57;100.00
9717;BME280;4897;43.570;27.832;2023-05-24T05:14:13;98805.31;;;19.94;100.00
9717;BME280;4897;43.570;27.832;2023-05-24T05:16:41;98772.38;;;20.04;100.00
9717;BME280;4897;43.570;27.832;2023-05-24T05:19:08;98789.06;;;20.69;100.00
9717;BME280;4897;43.570;27.832;2023-05-24T05:21:35;98778.81;;;21.38;100.00
9717;BME280;4897;43.570;27.832;2023-05-24T05:24:05;98781.25;;;22.18;100.00
9717;BME280;4897;43.570;27.832;2023-05-24T05:26:32;98788.19;;;22.84;100.00
9717;BME280;4897;43.570;27.832;2023-05-24T05:29:00;98792.78;;;22.90;100.00
9717;BME280;4897;43.570;27.832;2023-05-24T05:31:26;98796.31;;;22.97;100.00
9717;BME280;4897;43.570;27.832;2023-05-24T05:33:55;98798.16;;;23.41;100.00
9717;BME280;4897;43.570;27.832;2023-05-24T05:36:22;98801.84;;;23.53;100.00
9717;BME280;4897;43.570;27.832;2023-05-24T05:38:48;98806.28;;;23.54;100.00
9717;BME280;4897;43.570;27.832;2023-05-24T05:41:17;98812.81;;;23.47;100.00
9717;BME280;4897;43.570;27.832;2023-05-24T05:43:44;98813.28;;;23.44;100.00
9717;BME280;4897;43.570;27.832;2023-05-24T05:46:10;98805.63;;;23.59;100.00
9717;BME280;4897;43.570;27.832;2023-05-24T05:48:40;98648.66;;;22.63;100.00
9717;BME280;4897;43.570;27.832;2023-05-24T05:51:08;98817.41;;;24.09;100.00
9717;BME280;4897;43.570;27.832;2023-05-24T05:53:37;98812.72;;;24.34;100.00
9717;BME280;4897;43.570;27.832;2023-05-24T05:56:04;98813.88;;;24.81;100.00
9717;BME280;4897;43.570;27.832;2023-05-24T05:58:33;98809.53;;;24.91;100.00
9717;BME280;4897;43.570;27.832;2023-05-24T06:01:00;98802.44;;;25.20;100.00
9717;BME280;4897;43.570;27.832;2023-05-24T06:03:27;98816.06;;;25.38;100.00
9717;BME280;4897;43.570;27.832;2023-05-24T06:05:54;98810.59;;;25.68;100.00
9717;BME280;4897;43.570;27.832;2023-05-24T06:08:21;98804.28;;;25.67;100.00
9717;BME280;4897;43.570;27.832;2023-05-24T06:10:48;98810.16;;;25.94;100.00
9717;BME280;4897;43.570;27.832;2023-05-24T06:13:15;98805.66;;;26.34;100.00
9717;BME280;4897;43.570;27.832;2023-05-24T06:15:43;98800.50;;;26.61;100.00
9717;BME280;4897;43.570;27.832;2023-05-24T06:18:10;98800.03;;;26.64;100.00
9717;BME280;4897;43.570;27.832;2023-05-24T06:20:38;98801.31;;;26.73;100.00
9717;BME280;4897;43.570;27.832;2023-05-24T06:23:04;98810.19;;;26.40;100.00
9717;BME280;4897;43.570;27.832;2023-05-24T06:25:32;98824.38;;;26.49;100.00
9717;BME280;4897;43.570;27.832;2023-05-24T06:27:58;98797.50;;;25.70;100.00
9717;BME280;4897;43.570;27.832;2023-05-24T06:30:26;98802.72;;;25.00;100.00
9717;BME280;4897;43.570;27.832;2023-05-24T06:32:54;98782.03;;;24.14;100.00
9717;BME280;4897;43.570;27.832;2023-05-24T06:35:21;98807.44;;;23.65;100.00
9717;BME280;4897;43.570;27.832;2023-05-24T06:37:48;98735.25;;;23.30;100.00
9717;BME280;4897;43.570;27.832;2023-05-24T06:40:19;98817.84;;;23.50;100.00
9717;BME280;4897;43.570;27.832;2023-05-24T06:42:46;98823.13;;;23.45;100.00
9717;BME280;4897;43.570;27.832;2023-05-24T06:45:13;98824.81;;;23.46;100.00
9717;BME280;4897;43.570;27.832;2023-05-24T06:47:40;98823.81;;;23.40;100.00
9717;BME280;4897;43.570;27.832;2023-05-24T06:50:09;98818.63;;;23.26;100.00
9717;BME280;4897;43.570;27.832;2023-05-24T06:52:36;98818.38;;;23.34;100.00
9717;BME280;4897;43.570;27.832;2023-05-24T06:55:03;98786.00;;;22.99;100.00
9717;BME280;4897;43.570;27.832;2023-05-24T06:57:33;98808.50;;;23.26;100.00
9717;BME280;4897;43.570;27.832;2023-05-24T07:00:00;98810.63;;;23.24;100.00
9717;BME280;4897;43.570;27.832;2023-05-24T07:02:28;98763.59;;;22.97;100.00
9717;BME280;4897;43.570;27.832;2023-05-24T07:04:55;98799.66;;;23.37;100.00
9717;BME280;4897;43.570;27.832;2023-05-24T07:07:27;98825.06;;;23.69;100.00
9717;BME280;4897;43.570;27.832;2023-05-24T07:09:54;98689.28;;;23.02;100.00
9717;BME280;4897;43.570;27.832;2023-05-24T07:12:21;98805.28;;;23.98;100.00
9717;BME280;4897;43.570;27.832;2023-05-24T07:14:48;98802.59;;;23.92;100.00
9717;BME280;4897;43.570;27.832;2023-05-24T07:17:16;98803.22;;;24.18;100.00
9717;BME280;4897;43.570;27.832;2023-05-24T07:19:43;98824.47;;;24.77;100.00
9717;BME280;4897;43.570;27.832;2023-05-24T07:22:10;98784.91;;;25.09;100.00
9717;BME280;4897;43.570;27.832;2023-05-24T07:24:38;98809.44;;;25.46;100.00
9717;BME280;4897;43.570;27.832;2023-05-24T07:27:05;98788.28;;;25.64;100.00
9717;BME280;4897;43.570;27.832;2023-05-24T07:29:32;98804.31;;;25.90;100.00
9717;BME280;4897;43.570;27.832;2023-05-24T07:31:59;98761.28;;;26.37;100.00
9717;BME280;4897;43.570;27.832;2023-05-24T07:34:26;98790.94;;;26.75;100.00
9717;BME280;4897;43.570;27.832;2023-05-24T07:36:57;98816.19;;;27.28;93.34
9717;BME280;4897;43.570;27.832;2023-05-24T07:39:25;98813.66;;;28.16;87.10
9717;BME280;4897;43.570;27.832;2023-05-24T07:41:54;98808.31;;;29.78;68.47
9717;BME280;4897;43.570;27.832;2023-05-24T07:44:20;98735.28;;;31.46;54.06
9717;BME280;4897;43.570;27.832;2023-05-24T07:46:48;98803.34;;;32.07;51.14
9717;BME280;4897;43.570;27.832;2023-05-24T07:49:15;98825.25;;;30.65;54.77
9717;BME280;4897;43.570;27.832;2023-05-24T07:51:42;98819.44;;;31.08;53.74
9717;BME280;4897;43.570;27.832;2023-05-24T07:54:09;98816.31;;;31.67;51.46
9717;BME280;4897;43.570;27.832;2023-05-24T07:56:36;98816.31;;;32.57;47.78
9717;BME280;4897;43.570;27.832;2023-05-24T07:59:04;98816.97;;;33.18;45.60
9717;BME280;4897;43.570;27.832;2023-05-24T08:01:33;98806.63;;;32.55;47.09
9717;BME280;4897;43.570;27.832;2023-05-24T08:04:02;98791.81;;;33.48;44.28
9717;BME280;4897;43.570;27.832;2023-05-24T08:06:30;98811.53;;;32.98;45.07
9717;BME280;4897;43.570;27.832;2023-05-24T08:08:58;98775.69;;;34.28;42.71
9717;BME280;4897;43.570;27.832;2023-05-24T08:11:25;98803.06;;;35.15;40.51
9717;BME280;4897;43.570;27.832;2023-05-24T08:13:52;98813.69;;;34.61;39.83
9717;BME280;4897;43.570;27.832;2023-05-24T08:16:20;98808.31;;;33.73;42.33
9717;BME280;4897;43.570;27.832;2023-05-24T08:18:53;98821.44;;;34.07;40.99
9717;BME280;4897;43.570;27.832;2023-05-24T08:21:20;98832.28;;;32.90;43.74
9717;BME280;4897;43.570;27.832;2023-05-24T08:23:47;98838.66;;;33.60;42.79
9717;BME280;4897;43.570;27.832;2023-05-24T08:26:13;98826.28;;;32.28;42.63
9717;BME280;4897;43.570;27.832;2023-05-24T08:28:43;98820.69;;;31.63;45.01
9717;BME280;4897;43.570;27.832;2023-05-24T08:31:10;98822.06;;;33.94;41.53
9717;BME280;4897;43.570;27.832;2023-05-24T08:33:39;98781.09;;;33.37;40.32
9717;BME280;4897;43.570;27.832;2023-05-24T08:36:07;98794.47;;;31.80;42.97
9717;BME280;4897;43.570;27.832;2023-05-24T08:38:34;98829.47;;;34.08;39.67
9717;BME280;4897;43.570;27.832;2023-05-24T08:41:04;98797.44;;;36.00;36.37
9717;BME280;4897;43.570;27.832;2023-05-24T08:43:32;98819.28;;;36.71;34.52
9717;BME280;4897;43.570;27.832;2023-05-24T08:46:01;98822.63;;;35.90;33.88
9717;BME280;4897;43.570;27.832;2023-05-24T08:48:29;98795.75;;;34.53;34.63
9717;BME280;4897;43.570;27.832;2023-05-24T08:50:58;98786.97;;;35.73;34.14
9717;BME280;4897;43.570;27.832;2023-05-24T08:53:25;98827.38;;;37.00;33.54
9717;BME280;4897;43.570;27.832;2023-05-24T08:55:55;98816.59;;;36.34;33.48
9717;BME280;4897;43.570;27.832;2023-05-24T08:58:23;98797.16;;;35.41;34.44
9717;BME280;4897;43.570;27.832;2023-05-24T09:00:55;98834.25;;;33.98;35.50
9717;BME280;4897;43.570;27.832;2023-05-24T09:03:24;98827.94;;;33.38;36.12
9717;BME280;4897;43.570;27.832;2023-05-24T09:05:52;98839.03;;;32.24;37.93
9717;BME280;4897;43.570;27.832;2023-05-24T09:08:20;98836.63;;;31.25;39.45
9717;BME280;4897;43.570;27.832;2023-05-24T09:10:48;98775.41;;;32.14;38.57
9717;BME280;4897;43.570;27.832;2023-05-24T09:13:16;98842.09;;;32.07;38.05
9717;BME280;4897;43.570;27.832;2023-05-24T09:15:44;98805.78;;;31.74;38.57
9717;BME280;4897;43.570;27.832;2023-05-24T09:18:11;98823.25;;;34.79;35.31
9717;BME280;4897;43.570;27.832;2023-05-24T09:20:38;98776.34;;;36.58;33.09
9717;BME280;4897;43.570;27.832;2023-05-24T09:23:08;98783.00;;;37.88;31.18
9717;BME280;4897;43.570;27.832;2023-05-24T09:25:42;98774.56;;;38.55;30.99
9717;BME280;4897;43.570;27.832;2023-05-24T09:28:12;98790.81;;;38.75;32.12
9717;BME280;4897;43.570;27.832;2023-05-24T09:30:39;98809.41;;;37.19;33.97
9717;BME280;4897;43.570;27.832;2023-05-24T09:33:08;98813.00;;;38.49;33.17
9717;BME280;4897;43.570;27.832;2023-05-24T09:35:38;98814.66;;;36.02;34.89
9717;BME280;4897;43.570;27.832;2023-05-24T09:38:15;98840.53;;;33.69;38.85
9717;BME280;4897;43.570;27.832;2023-05-24T09:40:44;98790.59;;;32.31;40.84
9717;BME280;4897;43.570;27.832;2023-05-24T09:43:11;98820.50;;;32.19;41.54
9717;BME280;4897;43.570;27.832;2023-05-24T09:45:40;98822.09;;;31.50;43.29
9717;BME280;4897;43.570;27.832;2023-05-24T09:48:12;98831.25;;;30.15;46.50
9717;BME280;4897;43.570;27.832;2023-05-24T09:50:39;98837.00;;;29.29;50.13
9717;BME280;4897;43.570;27.832;2023-05-24T09:53:07;98784.41;;;27.94;54.92
9717;BME280;4897;43.570;27.832;2023-05-24T09:55:35;98841.38;;;25.93;100.00
9717;BME280;4897;43.570;27.832;2023-05-24T09:58:04;98830.34;;;23.26;100.00
9717;BME280;4897;43.570;27.832;2023-05-24T10:00:33;98852.06;;;22.44;100.00
9717;BME280;4897;43.570;27.832;2023-05-24T10:03:02;98855.03;;;21.97;100.00
9717;BME280;4897;43.570;27.832;2023-05-24T10:05:31;98864.66;;;22.06;100.00
9717;BME280;4897;43.570;27.832;2023-05-24T10:07:59;98849.09;;;22.52;100.00
9717;BME280;4897;43.570;27.832;2023-05-24T10:10:27;98813.31;;;23.37;100.00
9717;BME280;4897;43.570;27.832;2023-05-24T10:12:57;98816.19;;;24.23;100.00
9717;BME280;4897;43.570;27.832;2023-05-24T10:15:26;98835.75;;;23.95;100.00
9717;BME280;4897;43.570;27.832;2023-05-24T10:17:54;98797.59;;;23.33;100.00
9717;BME280;4897;43.570;27.832;2023-05-24T10:20:22;98798.09;;;23.17;100.00
9717;BME280;4897;43.570;27.832;2023-05-24T10:22:53;98826.47;;;23.47;100.00
9717;BME280;4897;43.570;27.832;2023-05-24T10:25:22;98824.00;;;23.39;100.00
9717;BME280;4897;43.570;27.832;2023-05-24T10:27:54;98838.81;;;23.12;100.00
9717;BME280;4897;43.570;27.832;2023-05-24T10:30:33;98856.25;;;22.40;100.00
9717;BME280;4897;43.570;27.832;2023-05-24T10:33:00;98864.59;;;21.54;100.00
9717;BME280;4897;43.570;27.832;2023-05-24T10:35:29;98869.31;;;20.71;100.00
9717;BME280;4897;43.570;27.832;2023-05-24T10:37:58;98853.31;;;20.49;100.00
9717;BME280;4897;43.570;27.832;2023-05-24T10:40:28;98820.34;;;19.97;100.00
9717;BME280;4897;43.570;27.832;2023-05-24T10:42:58;98824.78;;;19.76;100.00
9717;BME280;4897;43.570;27.832;2023-05-24T10:45:35;98883.81;;;19.96;100.00
9717;BME280;4897;43.570;27.832;2023-05-24T10:48:31;98886.63;;;19.60;100.00
9717;BME280;4897;43.570;27.832;2023-05-24T10:51:00;98858.41;;;19.54;100.00
9717;BME280;4897;43.570;27.832;2023-05-24T10:53:27;98887.66;;;20.08;100.00
9717;BME280;4897;43.570;27.832;2023-05-24T10:55:55;98902.31;;;20.13;100.00
9717;BME280;4897;43.570;27.832;2023-05-24T10:58:26;98863.94;;;19.67;100.00
9717;BME280;4897;43.570;27.832;2023-05-24T11:00:56;98897.03;;;19.77;100.00
9717;BME280;4897;43.570;27.832;2023-05-24T11:03:23;98900.91;;;19.68;100.00
9717;BME280;4897;43.570;27.832;2023-05-24T11:05:52;98883.69;;;19.40;100.00
9717;BME280;4897;43.570;27.832;2023-05-24T11:08:30;98903.28;;;18.71;100.00
9717;BME280;4897;43.570;27.832;2023-05-24T11:11:02;98874.34;;;18.05;100.00
9717;BME280;4897;43.570;27.832;2023-05-24T11:13:30;98858.59;;;18.08;100.00
9717;BME280;4897;43.570;27.832;2023-05-24T11:16:01;98909.34;;;18.44;100.00
9717;BME280;4897;43.570;27.832;2023-05-24T11:18:28;98898.34;;;18.22;100.00
9717;BME280;4897;43.570;27.832;2023-05-24T11:20:56;98881.34;;;17.99;100.00
9717;BME280;4897;43.570;27.832;2023-05-24T11:23:25;98872.19;;;18.00;100.00
9717;BME280;4897;43.570;27.832;2023-05-24T11:25:52;98879.94;;;18.03;100.00
9717;BME280;4897;43.570;27.832;2023-05-24T11:28:19;98876.03;;;18.06;100.00
9717;BME280;4897;43.570;27.832;2023-05-24T11:30:48;98871.00;;;18.32;100.00
9717;BME280;4897;43.570;27.832;2023-05-24T11:33:17;98883.91;;;18.74;100.00
9717;BME280;4897;43.570;27.832;2023-05-24T11:35:45;98888.63;;;19.01;100.00
9717;BME280;4897;43.570;27.832;2023-05-24T11:38:13;98890.38;;;19.23;100.00
9717;BME280;4897;43.570;27.832;2023-05-24T11:40:41;98846.09;;;19.16;100.00
9717;BME280;4897;43.570;27.832;2023-05-24T11:43:11;98878.56;;;19.66;100.00
9717;BME280;4897;43.570;27.832;2023-05-24T11:45:41;98879.81;;;19.91;100.00
9717;BME280;4897;43.570;27.832;2023-05-24T11:48:11;98890.38;;;20.29;100.00
9717;BME280;4897;43.570;27.832;2023-05-24T11:50:41;98897.34;;;20.44;100.00
9717;BME280;4897;43.570;27.832;2023-05-24T11:53:09;98890.94;;;20.52;100.00
9717;BME280;4897;43.570;27.832;2023-05-24T11:55:36;98889.66;;;20.48;100.00
9717;BME280;4897;43.570;27.832;2023-05-24T11:58:06;98882.38;;;20.48;100.00
9717;BME280;4897;43.570;27.832;2023-05-24T12:00:38;98874.16;;;20.42;100.00
9717;BME280;4897;43.570;27.832;2023-05-24T12:03:07;98860.38;;;20.43;100.00
9717;BME280;4897;43.570;27.832;2023-05-24T12:05:35;98883.50;;;20.67;100.00
9717;BME280;4897;43.570;27.832;2023-05-24T12:08:05;98875.59;;;20.72;100.00
9717;BME280;4897;43.570;27.832;2023-05-24T12:10:33;98857.47;;;20.45;100.00
9717;BME280;4897;43.570;27.832;2023-05-24T12:13:01;98859.06;;;20.67;100.00
9717;BME280;4897;43.570;27.832;2023-05-24T12:15:28;98843.03;;;20.85;100.00
9717;BME280;4897;43.570;27.832;2023-05-24T12:17:56;98856.16;;;21.22;100.00
9717;BME280;4897;43.570;27.832;2023-05-24T12:20:23;98857.47;;;21.39;100.00
9717;BME280;4897;43.570;27.832;2023-05-24T12:22:54;98848.69;;;21.64;100.00
9717;BME280;4897;43.570;27.832;2023-05-24T12:25:22;98831.97;;;21.73;100.00
9717;BME280;4897;43.570;27.832;2023-05-24T12:27:52;98859.41;;;22.17;100.00
9717;BME280;4897;43.570;27.832;2023-05-24T12:30:21;98848.66;;;22.55;100.00
9717;BME280;4897;43.570;27.832;2023-05-24T12:32:49;98848.41;;;22.76;100.00
9717;BME280;4897;43.570;27.832;2023-05-24T12:35:19;98846.72;;;22.82;100.00
9717;BME280;4897;43.570;27.832;2023-05-24T12:37:46;98842.25;;;23.00;100.00
9717;BME280;4897;43.570;27.832;2023-05-24T12:40:15;98832.31;;;23.13;100.00
9717;BME280;4897;43.570;27.832;2023-05-24T12:42:49;98831.69;;;23.11;100.00
9717;BME280;4897;43.570;27.832;2023-05-24T12:45:17;98840.44;;;23.26;100.00
9717;BME280;4897;43.570;27.832;2023-05-24T12:47:49;98848.44;;;23.21;100.00
9717;BME280;4897;43.570;27.832;2023-05-24T12:50:17;98833.41;;;23.43;100.00
9717;BME280;4897;43.570;27.832;2023-05-24T12:52:44;98828.19;;;23.41;100.00
9717;BME280;4897;43.570;27.832;2023-05-24T12:55:12;98821.38;;;23.57;100.00
9717;BME280;4897;43.570;27.832;2023-05-24T12:57:40;98827.56;;;23.70;100.00
9717;BME280;4897;43.570;27.832;2023-05-24T13:00:12;98741.97;;;23.34;100.00
9717;BME280;4897;43.570;27.832;2023-05-24T13:02:39;98827.13;;;24.23;100.00
9717;BME280;4897;43.570;27.832;2023-05-24T13:05:07;98821.31;;;24.55;100.00
9717;BME280;4897;43.570;27.832;2023-05-24T13:07:34;98826.34;;;24.58;100.00
9717;BME280;4897;43.570;27.832;2023-05-24T13:10:01;98834.53;;;24.40;100.00